createdAt,value
2022-11-03T00:01:38.092Z,13.50
2022-11-03T00:04:07.246Z,13.50
2022-11-03T00:06:37.298Z,13.50
2022-11-03T00:09:07.590Z,13.50
2022-11-03T00:11:37.115Z,13.50
2022-11-03T00:14:05.908Z,13.50
2022-11-03T00:16:35.029Z,13.40
2022-11-03T00:19:03.476Z,13.50
2022-11-03T00:21:32.194Z,13.40
2022-11-03T00:24:02.753Z,13.40
2022-11-03T00:26:33.632Z,13.50
2022-11-03T00:29:03.195Z,13.40
2022-11-03T00:31:32.645Z,13.40
2022-11-03T00:34:01.799Z,13.40
2022-11-03T00:36:31.531Z,13.40
2022-11-03T00:39:01.509Z,13.40
2022-11-03T00:41:30.117Z,13.40
2022-11-03T00:43:58.472Z,13.40
2022-11-03T00:46:28.019Z,13.40
2022-11-03T00:48:56.286Z,13.30
2022-11-03T00:51:27.445Z,13.40
2022-11-03T00:53:57.513Z,13.30
2022-11-03T00:56:29.088Z,13.30
2022-11-03T00:58:58.433Z,13.30
2022-11-03T01:01:28.213Z,13.30
2022-11-03T01:04:16.411Z,13.30
2022-11-03T01:06:53.533Z,13.30
2022-11-03T01:09:23.529Z,13.30
2022-11-03T01:11:58.499Z,13.30
2022-11-03T01:14:28.907Z,13.30
2022-11-03T01:16:57.146Z,13.20
2022-11-03T01:19:25.965Z,13.20
2022-11-03T01:21:54.317Z,13.30
2022-11-03T01:24:23.238Z,13.30
2022-11-03T01:26:53.184Z,13.20
2022-11-03T01:29:21.586Z,13.20
2022-11-03T01:31:50.107Z,13.20
2022-11-03T01:34:20.307Z,13.20
2022-11-03T01:36:49.111Z,13.20
2022-11-03T01:39:18.949Z,13.20
2022-11-03T01:41:49.389Z,13.20
2022-11-03T01:44:36.610Z,13.30
2022-11-03T01:47:13.399Z,13.20
2022-11-03T01:49:46.414Z,13.20
2022-11-03T01:52:19.531Z,13.20
2022-11-03T01:54:51.625Z,13.20
2022-11-03T01:57:26.612Z,13.20
2022-11-03T01:59:59.149Z,13.20
2022-11-03T02:02:28.554Z,13.20
2022-11-03T02:05:00.604Z,13.20
2022-11-03T02:07:35.097Z,13.20
2022-11-03T02:10:03.906Z,13.20
2022-11-03T02:12:33.476Z,13.10
2022-11-03T02:15:07.351Z,13.10
2022-11-03T02:17:37.247Z,13.10
2022-11-03T02:20:08.656Z,13.10
2022-11-03T02:23:00.212Z,13.10
2022-11-03T02:25:46.480Z,13.10
2022-11-03T02:28:17.467Z,13.10
2022-11-03T02:30:51.305Z,13.10
2022-11-03T02:33:37.743Z,13.00
2022-11-03T02:36:13.095Z,13.00
2022-11-03T02:38:48.193Z,13.00
2022-11-03T02:41:20.029Z,13.00
2022-11-03T02:43:49.850Z,13.00
2022-11-03T02:46:19.370Z,13.00
2022-11-03T02:48:49.049Z,12.90
2022-11-03T02:51:17.356Z,12.90
2022-11-03T02:53:51.595Z,12.90
2022-11-03T02:56:22.756Z,12.90
2022-11-03T02:58:57.352Z,12.90
2022-11-03T03:01:34.586Z,12.90
2022-11-03T03:04:07.210Z,12.90
2022-11-03T03:06:40.466Z,12.90
2022-11-03T03:09:13.794Z,12.90
2022-11-03T03:11:45.886Z,12.90
2022-11-03T03:14:18.669Z,12.90
2022-11-03T03:16:56.656Z,12.90
2022-11-03T03:19:33.057Z,12.80
2022-11-03T03:22:07.276Z,12.90
2022-11-03T03:24:41.475Z,12.90
2022-11-03T03:27:13.797Z,12.90
2022-11-03T03:29:46.381Z,12.90
2022-11-03T03:32:20.277Z,12.80
2022-11-03T03:34:51.205Z,12.90
2022-11-03T03:37:21.657Z,12.90
2022-11-03T03:39:54.744Z,12.90
2022-11-03T03:42:29.440Z,12.90
2022-11-03T03:45:00.267Z,12.90
2022-11-03T03:47:31.166Z,12.90
2022-11-03T03:49:59.860Z,12.90
2022-11-03T03:52:28.592Z,12.90
2022-11-03T03:54:57.513Z,12.90
2022-11-03T03:57:29.546Z,12.80
2022-11-03T03:59:57.925Z,12.80
2022-11-03T04:02:26.190Z,12.90
2022-11-03T04:04:54.458Z,12.80
2022-11-03T04:07:43.504Z,12.80
2022-11-03T04:10:12.171Z,12.80
2022-11-03T04:13:01.124Z,12.80
2022-11-03T04:15:47.163Z,12.80
2022-11-03T04:18:35.117Z,12.80
2022-11-03T04:21:20.907Z,12.80
2022-11-03T04:23:49.286Z,12.80
2022-11-03T04:26:19.219Z,12.80
2022-11-03T04:28:48.821Z,12.70
2022-11-03T04:31:18.942Z,12.70
2022-11-03T04:33:48.103Z,12.70
2022-11-03T04:36:20.120Z,12.70
2022-11-03T04:38:49.013Z,12.70
2022-11-03T04:41:18.589Z,12.70
2022-11-03T04:43:49.626Z,12.70
2022-11-03T04:46:25.402Z,12.70
2022-11-03T04:48:54.615Z,12.70
2022-11-03T04:51:25.889Z,12.70
2022-11-03T04:53:56.337Z,12.70
2022-11-03T04:56:26.178Z,12.70
2022-11-03T04:58:55.810Z,12.70
2022-11-03T05:01:25.454Z,12.70
2022-11-03T05:03:55.475Z,12.70
2022-11-03T05:06:27.432Z,12.70
2022-11-03T05:08:59.511Z,12.70
2022-11-03T05:11:32.434Z,12.70
2022-11-03T05:14:04.292Z,12.70
2022-11-03T05:16:33.870Z,12.70
2022-11-03T05:19:02.125Z,12.60
2022-11-03T05:21:30.506Z,12.60
2022-11-03T05:24:04.737Z,12.60
2022-11-03T05:26:35.515Z,12.60
2022-11-03T05:29:11.489Z,12.60
2022-11-03T05:31:42.613Z,12.50
2022-11-03T05:34:33.611Z,12.50
2022-11-03T05:37:09.767Z,12.50
2022-11-03T05:39:39.546Z,12.40
2022-11-03T05:42:21.890Z,12.50
2022-11-03T05:44:52.863Z,12.60
2022-11-03T05:47:23.709Z,12.60
2022-11-03T05:49:55.819Z,12.50
2022-11-03T05:52:27.741Z,12.50
2022-11-03T05:54:59.860Z,12.50
2022-11-03T05:57:31.236Z,12.60
2022-11-03T06:00:00.996Z,12.60
2022-11-03T06:02:37.788Z,12.50
2022-11-03T06:05:16.607Z,12.50
2022-11-03T06:07:45.139Z,12.50
2022-11-03T06:10:26.783Z,12.50
2022-11-03T06:13:03.623Z,12.50
2022-11-03T06:15:35.999Z,12.50
2022-11-03T06:18:14.987Z,12.60
2022-11-03T06:20:43.811Z,12.60
2022-11-03T06:23:15.525Z,12.60
2022-11-03T06:25:44.250Z,12.60
2022-11-03T06:28:18.991Z,12.60
2022-11-03T06:30:50.080Z,12.50
2022-11-03T06:33:24.778Z,12.50
2022-11-03T06:35:56.762Z,12.50
2022-11-03T06:38:27.141Z,12.50
2022-11-03T06:40:55.515Z,12.50
2022-11-03T06:43:27.721Z,12.50
2022-11-03T06:45:59.711Z,12.50
2022-11-03T06:48:30.376Z,12.50
2022-11-03T06:50:59.978Z,12.50
2022-11-03T06:53:32.429Z,12.50
2022-11-03T06:56:01.425Z,12.60
2022-11-03T06:58:33.804Z,12.60
2022-11-03T07:01:11.343Z,12.60
2022-11-03T07:03:39.984Z,12.60
2022-11-03T07:06:18.937Z,12.60
2022-11-03T07:08:48.882Z,12.60
2022-11-03T07:11:19.892Z,12.60
2022-11-03T07:13:51.114Z,12.60
2022-11-03T07:16:28.813Z,12.60
2022-11-03T07:18:58.279Z,12.60
2022-11-03T07:21:34.029Z,12.80
2022-11-03T07:24:05.889Z,12.80
2022-11-03T07:26:35.180Z,12.70
2022-11-03T07:29:03.740Z,12.80
2022-11-03T07:31:33.380Z,12.70
2022-11-03T07:34:01.753Z,12.80
2022-11-03T07:36:33.042Z,12.70
2022-11-03T07:39:03.393Z,12.70
2022-11-03T07:41:34.891Z,12.70
2022-11-03T07:44:03.587Z,12.80
2022-11-03T07:46:33.738Z,12.80
2022-11-03T07:49:04.439Z,12.80
2022-11-03T07:51:34.831Z,12.90
2022-11-03T07:54:10.599Z,12.90
2022-11-03T07:56:43.651Z,13.00
2022-11-03T07:59:17.520Z,13.10
2022-11-03T08:01:50.600Z,13.10
2022-11-03T08:04:22.506Z,13.20
2022-11-03T08:06:51.461Z,13.20
2022-11-03T08:09:20.130Z,13.20
2022-11-03T08:11:48.922Z,13.20
2022-11-03T08:14:17.142Z,13.30
2022-11-03T08:16:47.021Z,13.40
2022-11-03T08:19:15.243Z,13.40
2022-11-03T08:21:43.514Z,13.40
2022-11-03T08:24:11.843Z,13.40
2022-11-03T08:26:40.376Z,13.40
2022-11-03T08:29:08.664Z,13.40
2022-11-03T08:31:36.911Z,13.50
2022-11-03T08:34:06.529Z,13.50
2022-11-03T08:36:34.898Z,13.40
2022-11-03T08:39:03.426Z,13.50
2022-11-03T08:41:31.874Z,13.50
2022-11-03T08:44:00.159Z,13.50
2022-11-03T08:46:28.539Z,13.60
2022-11-03T08:48:57.046Z,13.60
2022-11-03T08:51:26.770Z,13.60
2022-11-03T08:53:55.210Z,13.60
2022-11-03T08:56:23.693Z,13.60
2022-11-03T08:58:52.078Z,13.60
2022-11-03T09:01:20.431Z,13.60
2022-11-03T09:03:48.830Z,13.50
2022-11-03T09:06:17.174Z,13.60
2022-11-03T09:11:35.359Z,13.60
2022-11-03T09:14:04.012Z,13.60
2022-11-03T09:16:32.226Z,13.50
2022-11-03T09:19:00.427Z,13.50
2022-11-03T09:21:28.686Z,13.60
2022-11-03T09:24:00.199Z,13.60
2022-11-03T09:26:28.511Z,13.60
2022-11-03T09:28:56.753Z,13.60
2022-11-03T09:31:28.288Z,13.70
2022-11-03T09:33:56.626Z,13.60
2022-11-03T09:36:24.838Z,13.70
2022-11-03T09:38:53.185Z,13.70
2022-11-03T09:41:44.248Z,13.70
2022-11-03T09:44:12.877Z,13.80
2022-11-03T09:46:41.228Z,13.80
2022-11-03T09:49:09.496Z,13.80
2022-11-03T09:51:37.846Z,13.70
2022-11-03T09:54:07.101Z,13.80
2022-11-03T09:56:38.125Z,13.80
2022-11-03T09:59:16.907Z,13.80
2022-11-03T10:01:48.775Z,13.80
2022-11-03T10:04:18.341Z,13.80
2022-11-03T10:06:46.605Z,13.80
2022-11-03T10:09:18.908Z,13.90
2022-11-03T10:11:49.143Z,13.80
2022-11-03T10:14:18.878Z,13.90
2022-11-03T10:16:53.943Z,13.90
2022-11-03T10:19:22.524Z,13.90
2022-11-03T10:21:52.146Z,13.90
2022-11-03T10:24:20.499Z,13.90
2022-11-03T10:26:52.298Z,14.00
2022-11-03T10:29:22.759Z,13.90
2022-11-03T10:31:53.483Z,14.00
2022-11-03T10:34:27.812Z,14.00
2022-11-03T10:37:18.251Z,14.00
2022-11-03T10:39:46.901Z,14.00
2022-11-03T10:42:22.237Z,14.00
2022-11-03T10:44:53.819Z,14.00
2022-11-03T10:47:25.816Z,14.00
2022-11-03T10:49:55.251Z,14.00
2022-11-03T10:52:25.550Z,14.00
2022-11-03T10:54:55.313Z,14.00
2022-11-03T10:57:25.434Z,14.00
2022-11-03T10:59:55.495Z,14.00
2022-11-03T11:02:27.726Z,14.00
2022-11-03T11:05:00.819Z,14.00
2022-11-03T11:07:34.172Z,14.00
2022-11-03T11:10:08.841Z,14.10
2022-11-03T11:12:38.545Z,14.10
2022-11-03T11:15:38.789Z,14.10
2022-11-03T11:18:09.692Z,14.10
2022-11-03T11:20:39.573Z,14.10
2022-11-03T11:23:52.549Z,14.10
2022-11-03T11:26:42.094Z,14.10
2022-11-03T11:29:44.251Z,14.10
2022-11-03T11:32:52.075Z,14.10
2022-11-03T11:36:06.450Z,14.10
2022-11-03T11:39:13.434Z,14.10
2022-11-03T11:42:10.879Z,14.10
2022-11-03T11:45:03.945Z,14.10
2022-11-03T11:47:47.693Z,14.10
2022-11-03T11:50:32.912Z,14.10
2022-11-03T11:53:27.460Z,14.10
2022-11-03T11:56:01.535Z,14.10
2022-11-03T11:58:37.473Z,14.10
2022-11-03T12:01:09.023Z,14.10
2022-11-03T12:03:40.433Z,14.10
2022-11-03T12:06:09.812Z,14.10
2022-11-03T12:08:38.075Z,14.20
2022-11-03T12:11:09.218Z,14.20
2022-11-03T12:13:49.033Z,14.10
2022-11-03T12:16:34.817Z,14.20
2022-11-03T12:19:35.175Z,14.20
2022-11-03T12:22:03.931Z,14.20
2022-11-03T12:24:49.808Z,14.20
2022-11-03T12:27:43.374Z,14.20
2022-11-03T12:30:17.474Z,14.20
2022-11-03T12:32:46.659Z,14.20
2022-11-03T12:35:15.146Z,14.20
2022-11-03T12:37:43.772Z,14.20
2022-11-03T12:40:14.683Z,14.30
2022-11-03T12:42:44.351Z,14.20
2022-11-03T12:45:13.755Z,14.20
2022-11-03T12:47:42.588Z,14.20
2022-11-03T12:50:11.589Z,14.30
2022-11-03T12:52:39.819Z,14.30
2022-11-03T12:55:08.907Z,14.30
2022-11-03T12:57:37.073Z,14.30
2022-11-03T13:00:09.021Z,14.30
2022-11-03T13:02:37.461Z,14.30
2022-11-03T13:05:07.093Z,14.30
2022-11-03T13:07:35.516Z,14.30
2022-11-03T13:10:04.853Z,14.30
2022-11-03T13:12:33.109Z,14.30
2022-11-03T13:15:02.938Z,14.30
2022-11-03T13:17:46.007Z,14.30
2022-11-03T13:20:21.008Z,14.30
2022-11-03T13:22:49.192Z,14.30
2022-11-03T13:25:17.791Z,14.40
2022-11-03T13:27:46.239Z,14.30
2022-11-03T13:30:14.800Z,14.30
2022-11-03T13:32:44.392Z,14.30
2022-11-03T13:35:14.141Z,14.30
2022-11-03T13:37:42.908Z,14.30
2022-11-03T13:40:35.724Z,14.30
2022-11-03T13:43:01.481Z,14.30
2022-11-03T13:45:29.802Z,14.30
2022-11-03T13:50:50.998Z,14.30
2022-11-03T13:56:11.510Z,14.30
2022-11-03T14:01:32.186Z,14.30
2022-11-03T14:06:50.093Z,14.40
2022-11-03T14:09:18.349Z,14.40
2022-11-03T14:12:03.874Z,14.40
2022-11-03T14:14:32.372Z,14.40
2022-11-03T14:17:00.720Z,14.40
2022-11-03T14:19:37.965Z,14.40
2022-11-03T14:22:09.880Z,14.40
2022-11-03T14:24:38.306Z,14.40
2022-11-03T14:27:06.504Z,14.40
2022-11-03T14:29:34.806Z,14.40
2022-11-03T14:32:03.273Z,14.40
2022-11-03T14:34:32.887Z,14.40
2022-11-03T14:37:01.252Z,14.40
2022-11-03T14:39:30.214Z,14.40
2022-11-03T14:42:03.484Z,14.40
2022-11-03T14:44:32.134Z,14.40
2022-11-03T14:47:01.429Z,14.40
2022-11-03T14:49:30.274Z,14.40
2022-11-03T14:52:01.772Z,14.40
2022-11-03T14:54:31.467Z,14.50
2022-11-03T14:57:00.112Z,14.50
2022-11-03T14:59:28.456Z,14.50
2022-11-03T15:01:56.991Z,14.50
2022-11-03T15:04:25.804Z,14.50
2022-11-03T15:06:54.472Z,14.50
2022-11-03T15:09:24.143Z,14.50
2022-11-03T15:11:52.355Z,14.50
2022-11-03T15:14:20.601Z,14.50
